Winters Aire Park Airport

CFY4 · Alberta, Canadá

1 de octubre de 2022

Hora Código Tiempo Temp. Visibilidad Cielo nuboso Viento METAR/SPECI
09:00
V
7 °C 20 mi - Var 000° 0 kt METAR CYYC 011500Z 00000KT 20SM SKC 07/06 A3025 RMK SLP268
08:00
V
6 °C 20 mi - 200° 200° 2 kt METAR CYYC 011400Z 20002KT 20SM BCFG MIFG SKC 06/05 A3025 RMK SLP271
07:00
V
6 °C 15 mi - Var 000° 0 kt METAR CYYC 011300Z 00000KT 15SM FEW130 06/05 A3025 RMK AC1 AC TR SLP266
06:00
V
7 °C 15 mi - Var Var 2 kt METAR CYYC 011200Z VRB02KT 15SM SKC 07/06 A3026 RMK SLP268
05:00
V
6 °C 15 mi - Var 000° 0 kt METAR CYYC 011100Z 00000KT 15SM SKC 06/06 A3026 RMK SLP267
04:00
V
7 °C 15 mi - Var 000° 0 kt METAR CYYC 011000Z 00000KT 15SM SKC 07/07 A3026 RMK SLP265
03:00
V
7 °C 15 mi - Var 000° 0 kt METAR CYYC 010900Z 00000KT 15SM FEW130 07/06 A3026 RMK AC1 AC TR SLP267
02:00
V
8 °C 10 mi - Var Var 2 kt METAR CYYC 010800Z VRB02KT 10SM SCT130 08/06 A3026 RMK AC3 SLP265
01:00
V
9 °C 10 mi - Var Var 2 kt METAR CYYC 010700Z VRB02KT 10SM SCT130 09/07 A3026 RMK AC4 SLP265
00:00
V
10 °C 10 mi - Var 000° 0 kt METAR CYYC 010600Z 00000KT 10SM FEW022 FEW092 10/07 A3026 RMK SC1AC1 AC TR SLP264

30 de septiembre de 2022

Hora Código Tiempo Temp. Visibilidad Cielo nuboso Viento METAR/SPECI
23:00
M
10 °C 10 mi 2.700 ft 320° 320° 6 kt METAR CYYC 010500Z 32006KT 10SM BKN027 10/08 A3027 RMK SC5 SLP268
22:00
V
11 °C 10 mi - 340° 340° 5 kt METAR CYYC 010400Z 34005KT 10SM FEW087 11/08 A3025 RMK AC1 AC TR SLP263
21:00
V
12 °C 10 mi 9.200 ft 340° 340° 5 kt METAR CYYC 010300Z 34005KT 10SM FEW028 BKN092 12/09 A3024 RMK SC1AC5 SC TR SLP258 DENSITY ALT 3700FT
20:00
V
12 °C 10 mi - 010° 010° 6 kt METAR CYYC 010200Z 01006KT 10SM FEW027 FEW120 FEW240 12/08 A3022 RMK SC1AC2CI1 SC TR CI TR SLP252 DENSITY ALT 3800FT
19:00
V
14 °C 12 mi 12.000 ft 040° 040° 7 kt METAR CYYC 010100Z 04007KT 12SM FEW025 BKN120 BKN250 14/09 A3021 RMK SC1AC6CI1 SC TR SLP243 DENSITY ALT 4000FT
18:00
V
14 °C 15 mi 11.000 ft 040° 040° 9 kt METAR CYYC 010000Z 04009KT 15SM FEW024 BKN110 BKN250 14/09 A3020 RMK SC1AC6CI1 SC TR SLP239 DENSITY ALT 4100FT
17:00
V
15 °C 15 mi 11.000 ft 020° 020° 9 kt METAR CYYC 302300Z 02009KT 350V050 15SM FEW024 BKN110 15/09 A3020 RMK SC1AC6 SLP240 DENSITY ALT 4200FT
16:00
V
15 °C 15 mi 11.000 ft 020° 020° 12 kt METAR CYYC 302200Z 02012KT 15SM FEW020 BKN110 15/09 A3019 RMK SC2AC5 SLP238 DENSITY ALT 4200FT
15:00
V
15 °C 10 mi 11.000 ft 360° 360° 16 - 22 kt METAR CYYC 302100Z 36016G22KT 10SM FEW018 BKN110 BKN250 15/09 A3019 RMK SC2AC5CC1 CC TR SLP237 DENSITY ALT 4200FT
14:00
V
16 °C 12 mi 12.000 ft 360° 360° 16 kt METAR CYYC 302000Z 36016KT 12SM FEW020 BKN120 BKN250 16/09 A3019 RMK SC2AC5CI1 CI TR SLP235 DENSITY ALT 4300FT
13:00
M
15 °C 12 mi 1.800 ft 350° 350° 16 kt METAR CYYC 301900Z 35016KT 12SM BKN018 BKN100 15/09 A3019 RMK SC5AC2 SLP235 DENSITY ALT 4200FT
12:00
M
15 °C 12 mi 1.800 ft 360° 360° 16 kt METAR CYYC 301800Z 36016KT 12SM BKN018 BKN140 15/09 A3019 RMK SC5AC2 SLP235 DENSITY ALT 4100FT
11:35
M
14 °C 15 mi 1.600 ft 360° 360° 17 kt METAR CYYC 301735Z 36017KT 15SM BKN016 BKN140 14/09 A3018 RMK SC6AC1 SLP233 DENSITY ALT 4100FT
11:00
M
13 °C 10 mi 1.400 ft 360° 360° 17 - 22 kt METAR CYYC 301700Z 36017G22KT 10SM BKN014 13/09 A3017 RMK SC7 SLP230 DENSITY ALT 4000FT
10:19
M
13 °C 12 mi 1.400 ft 350° 350° 19 kt METAR CYYC 301619Z 35019KT 12SM BKN014 BKN140 13/09 A3017 RMK SC6AC1 SLP230 DENSITY ALT 3900FT
10:00
M
13 °C 10 mi 1.500 ft 360° 360° 12 - 19 kt METAR CYYC 301600Z 36012G19KT 10SM BKN015 BKN087 BKN140 13/09 A3017 RMK SC6AC1AC1 AC TR SLP232 DENSITY ALT 3900FT
09:29
V
12 °C 9 mi 14.000 ft 340° 340° 9 - 15 kt METAR CYYC 301529Z 34009G15KT 9SM FEW014 SCT086 BKN140 12/08 A3017 RMK SC2AC2AC2 SLP233 DENSITY ALT 3800FT
09:00
M
12 °C 12 mi 1.200 ft 350° 350° 11 - 17 kt METAR CYYC 301500Z 35011G17KT 12SM BKN012 OVC140 12/09 A3017 RMK SC6AC2 SLP233 DENSITY ALT 3800FT
08:44
M
12 °C 12 mi 1.400 ft 350° 350° 12 - 18 kt METAR CYYC 301444Z 35012G18KT 12SM BKN014 OVC130 12/09 A3016 RMK SC7AC1 SLP230 DENSITY ALT 3800FT
08:27
V
12 °C 9 mi 13.000 ft 340° 340° 15 - 20 kt METAR CYYC 301427Z 34015G20KT 9SM SCT013 BKN130 12/09 A3016 RMK SC3AC4 SLP228 DENSITY ALT 3800FT
08:18
M
12 °C 9 mi 1.400 ft 340° 340° 15 - 20 kt METAR CYYC 301418Z 34015G20KT 9SM BKN014 BKN130 12/09 A3016 RMK SC5AC2 SLP228 DENSITY ALT 3800FT
08:00
M
12 °C 9 mi 1.300 ft 340° 340° 15 - 21 kt METAR CYYC 301400Z 34015G21KT 9SM BKN013 BKN023 OVC130 12/09 A3015 RMK SC6SC1AC1 OCNL -SHRA / CVCTV CLD EMBD SLP225 DENSITY ALT 3900FT
07:29
M
12 °C 8 mi 1.300 ft 340° 340° 18 kt METAR CYYC 301329Z 34018KT 8SM -SHRA OVC013 12/09 A3015 RMK SC8 CVCTV CLD EMBD SLP225 DENSITY ALT 3900FT
07:00
M
12 °C 10 mi 1.500 ft 340° 340° 16 - 25 kt METAR CYYC 301300Z 34016G25KT 10SM BKN015 OVC110 12/09 A3014 RMK SC6AC2 INTMT -RA SLP218 DENSITY ALT 3900FT
06:31
M
12 °C 10 mi 1.400 ft 350° 350° 15 kt METAR CYYC 301231Z 35015KT 10SM -RA BKN014 OVC095 12/08 A3014 RMK SC7AC1 -RA INTMT SLP220 DENSITY ALT 3900FT
06:00
M
12 °C 10 mi 1.300 ft 340° 340° 17 - 22 kt METAR CYYC 301200Z 34017G22KT 10SM OVC013 12/08 A3013 RMK SC8 SLP214 DENSITY ALT 3900FT
05:19
M
12 °C 15 mi 1.200 ft 340° 340° 15 - 24 kt METAR CYYC 301119Z 34015G24KT 15SM BKN012 OVC110 12/08 A3012 RMK SC6AC2 SLP212 DENSITY ALT 3900FT
05:00
V
12 °C 15 mi 9.800 ft 340° 340° 17 - 24 kt METAR CYYC 301100Z 34017G24KT 15SM FEW013 OVC098 12/08 A3012 RMK SC2AC6 SLP210 DENSITY ALT 3900FT
04:00
V
12 °C 15 mi 8.400 ft 340° 340° 11 - 17 kt METAR CYYC 301000Z 34011G17KT 15SM FEW030 BKN084 12/08 A3013 RMK SC1AC6 SLP212 DENSITY ALT 3800FT
03:00
V
12 °C 15 mi - 350° 350° 15 - 22 kt METAR CYYC 300900Z 35015G22KT 15SM SCT110 12/08 A3011 RMK AC4 SLP204 DENSITY ALT 3900FT
02:00
V
12 °C 15 mi 11.000 ft 340° 340° 15 - 22 kt METAR CYYC 300800Z 34015G22KT 15SM BKN110 12/08 A3011 RMK AC7 SLP206 DENSITY ALT 4000FT
01:00
V
13 °C 15 mi 11.000 ft 340° 340° 17 - 24 kt METAR CYYC 300700Z 34017G24KT 15SM BKN110 13/08 A3010 RMK AC7 SLP205 DENSITY ALT 4000FT
00:00
V
13 °C 15 mi - 340° 340° 19 - 24 kt METAR CYYC 300600Z 34019G24KT 15SM SCT110 13/08 A3009 RMK AC4 SLP199 DENSITY ALT 4000FT

29 de septiembre de 2022

Hora Código Tiempo Temp. Visibilidad Cielo nuboso Viento METAR/SPECI
23:00
V
13 °C 15 mi 14.000 ft 340° 340° 17 - 24 kt METAR CYYC 300500Z 34017G24KT 15SM BKN140 13/08 A3008 RMK AC7 SLP197 DENSITY ALT 4000FT
22:00
V
12 °C 15 mi - 330° 330° 17 - 22 kt METAR CYYC 300400Z 33017G22KT 15SM FEW100 12/08 A3008 RMK AC2 SLP195 DENSITY ALT 4000FT
21:00
V
13 °C 15 mi 10.000 ft 330° 330° 15 kt METAR CYYC 300300Z 33015KT 15SM BKN100 13/08 A3007 RMK AC5 SLP188 DENSITY ALT 4100FT
20:00
V
13 °C 15 mi 13.000 ft 340° 340° 13 - 18 kt METAR CYYC 300200Z 34013G18KT 15SM SCT095 BKN130 BKN230 13/08 A3006 RMK AC4AC1CC1 SLP183 DENSITY ALT 4100FT
19:00
V
14 °C 9 mi 23.000 ft 350° 350° 16 - 22 kt METAR CYYC 300100Z 35016G22KT 9SM SCT130 BKN230 14/08 A3003 RMK AC4CI1 ACC ASOCTD / CONTRAILS SLP172 DENSITY ALT 4200FT
18:00
V
15 °C 9 mi 20.000 ft 340° 340° 17 kt METAR CYYC 300000Z 34017KT 9SM SCT093 BKN200 15/09 A3002 RMK AC4CI2 ACC ASOCTD SLP169 DENSITY ALT 4400FT
17:00
V
15 °C 15 mi 9.400 ft 360° 360° 14 - 23 kt METAR CYYC 292300Z 36014G23KT 15SM SCT081 BKN094 BKN230 15/09 A3001 RMK AC4AC1CI2 ACC ASOCTD / VIRGA SLP173 DENSITY ALT 4400FT
16:00
V
17 °C 15 mi 7.600 ft 340° 340° 12 kt METAR CYYC 292200Z 34012KT 15SM FEW036TCU BKN076 BKN230 17/08 A3001 RMK TCU1AC5CI2 TCU TR DIST SH SW / ACC ASOCTD SLP170 DENSITY ALT 4600FT
15:00
V
17 °C 12 mi 14.000 ft 320° 320° 18 kt METAR CYYC 292100Z 32018KT 12SM SCT093 BKN140 BKN230 17/08 A2997 RMK AC4AC1CI2 SLP156 DENSITY ALT 4600FT
14:00
V
15 °C 12 mi 15.000 ft 330° 330° 18 - 24 kt METAR CYYC 292000Z 33018G24KT 12SM SCT092 BKN150 BKN230 15/08 A2997 RMK AC4AC2CI1 DIST SH NW-SE / ACC ASOCTD SLP158 DENSITY ALT 4500FT
13:38
V
14 °C 12 mi 9.200 ft 330° 330° 17 - 24 kt METAR CYYC 291938Z 33017G24KT 12SM BKN092 BKN230 14/08 A2998 RMK AC6CI1 DIST SH NW-SE / ACC ASOCTD SLP161 DENSITY ALT 4400FT
13:00
V
14 °C 12 mi 10.000 ft 320° 320° 6 kt METAR CYYC 291900Z 32006KT 280V340 12SM -SHRA BKN100 BKN230 14/09 A3000 RMK ACC7CI1 CI TR SLP168 DENSITY ALT 4300FT
12:00
V
16 °C 9 mi 8.000 ft 280° 280° 6 kt METAR CYYC 291800Z 28006KT 9SM BKN080 16/09 A3000 RMK AC7 OCNL -SHRA SLP164 DENSITY ALT 4500FT
11:00
V
14 °C 12 mi 8.200 ft 040° 040° 8 kt METAR CYYC 291700Z 04008KT 12SM -SHRA OVC082 14/08 A2999 RMK ACC8 SLP159 DENSITY ALT 4300FT
10:00
V
16 °C 6 mi 6.800 ft 120° 120° 10 - 15 kt METAR CYYC 291600Z 12010G15KT 6SM -SHRA FU BKN068 OVC100 16/05 A2999 RMK FU1ACC6AC1 PRESRR SLP161 DENSITY ALT 4500FT
09:21
V
16 °C 9 mi 10.000 ft Var Var 2 kt METAR CYYC 291521Z VRB02KT 9SM -SHRA BKN100 BKN230 16/04 A2993 RMK FU1ACC6CI1 CI TR SLP133 DENSITY ALT 4600FT
09:00
V
18 °C 9 mi 10.000 ft 050° 050° 12 - 18 kt METAR CYYC 291500Z 05012G18KT 9SM BKN100 18/04 A2993 RMK FU1AC6 VIRGA SLP133 DENSITY ALT 4800FT
Datos más antiguos

Nosotros y terceros seguimos tu comportamiento en Internet en nuestro sitio web con cookies. Si continúas, asumimos que estás de acuerdo con nuestra política de cookies. Más información